sensor_id;sensor_type;location;lat;lon;timestamp;temperature;humidity
3942;DHT22;1985;48.592;8.850;2023-02-20T00:00:08;8.90;99.90
3942;DHT22;1985;48.592;8.850;2023-02-20T00:02:35;9.00;99.90
3942;DHT22;1985;48.592;8.850;2023-02-20T00:05:00;9.00;99.90
3942;DHT22;1985;48.592;8.850;2023-02-20T00:07:26;9.10;99.90
3942;DHT22;1985;48.592;8.850;2023-02-20T00:09:52;9.00;99.90
3942;DHT22;1985;48.592;8.850;2023-02-20T00:12:17;9.00;99.90
3942;DHT22;1985;48.592;8.850;2023-02-20T00:14:43;9.10;99.90
3942;DHT22;1985;48.592;8.850;2023-02-20T00:17:09;9.10;99.90
3942;DHT22;1985;48.592;8.850;2023-02-20T00:19:34;9.10;99.90
3942;DHT22;1985;48.592;8.850;2023-02-20T00:22:00;9.10;99.90
3942;DHT22;1985;48.592;8.850;2023-02-20T00:24:25;9.10;99.90
3942;DHT22;1985;48.592;8.850;2023-02-20T00:26:52;9.10;99.90
3942;DHT22;1985;48.592;8.850;2023-02-20T00:29:19;9.10;99.90
3942;DHT22;1985;48.592;8.850;2023-02-20T00:31:53;9.10;99.90
3942;DHT22;1985;48.592;8.850;2023-02-20T00:34:20;9.10;99.90
3942;DHT22;1985;48.592;8.850;2023-02-20T00:36:45;9.20;99.90
3942;DHT22;1985;48.592;8.850;2023-02-20T00:39:11;9.20;99.90
3942;DHT22;1985;48.592;8.850;2023-02-20T00:41:37;9.10;99.90
3942;DHT22;1985;48.592;8.850;2023-02-20T00:44:02;9.00;99.90
3942;DHT22;1985;48.592;8.850;2023-02-20T00:46:28;9.00;99.90
3942;DHT22;1985;48.592;8.850;2023-02-20T00:48:54;9.10;99.90
3942;DHT22;1985;48.592;8.850;2023-02-20T00:51:19;9.10;99.90
3942;DHT22;1985;48.592;8.850;2023-02-20T00:53:45;9.10;99.90
3942;DHT22;1985;48.592;8.850;2023-02-20T00:56:10;9.10;99.90
3942;DHT22;1985;48.592;8.850;2023-02-20T00:58:36;9.10;99.90
3942;DHT22;1985;48.592;8.850;2023-02-20T01:01:02;9.20;99.90
3942;DHT22;1985;48.592;8.850;2023-02-20T01:03:28;9.20;99.90
3942;DHT22;1985;48.592;8.850;2023-02-20T01:05:53;9.20;99.90
3942;DHT22;1985;48.592;8.850;2023-02-20T01:08:19;9.20;99.90
3942;DHT22;1985;48.592;8.850;2023-02-20T01:10:44;9.20;99.90
3942;DHT22;1985;48.592;8.850;2023-02-20T01:13:10;9.20;99.90
3942;DHT22;1985;48.592;8.850;2023-02-20T01:15:36;9.30;99.90
3942;DHT22;1985;48.592;8.850;2023-02-20T01:18:01;9.30;99.90
3942;DHT22;1985;48.592;8.850;2023-02-20T01:20:27;9.30;99.90
3942;DHT22;1985;48.592;8.850;2023-02-20T01:22:53;9.20;99.90
3942;DHT22;1985;48.592;8.850;2023-02-20T01:25:18;9.20;99.90
3942;DHT22;1985;48.592;8.850;2023-02-20T01:27:44;9.20;99.90
3942;DHT22;1985;48.592;8.850;2023-02-20T01:30:10;9.20;99.90
3942;DHT22;1985;48.592;8.850;2023-02-20T01:32:35;9.20;99.90
3942;DHT22;1985;48.592;8.850;2023-02-20T01:35:01;9.10;99.90
3942;DHT22;1985;48.592;8.850;2023-02-20T01:37:26;9.10;99.90
3942;DHT22;1985;48.592;8.850;2023-02-20T01:39:52;9.00;99.90
3942;DHT22;1985;48.592;8.850;2023-02-20T01:42:21;9.00;99.90
3942;DHT22;1985;48.592;8.850;2023-02-20T01:44:48;9.00;99.90
3942;DHT22;1985;48.592;8.850;2023-02-20T01:47:19;9.00;99.90
3942;DHT22;1985;48.592;8.850;2023-02-20T01:49:53;9.00;99.90
3942;DHT22;1985;48.592;8.850;2023-02-20T01:52:26;9.00;99.90
3942;DHT22;1985;48.592;8.850;2023-02-20T01:55:02;9.00;99.90
3942;DHT22;1985;48.592;8.850;2023-02-20T01:57:31;8.90;99.90
3942;DHT22;1985;48.592;8.850;2023-02-20T02:00:08;8.80;99.90
3942;DHT22;1985;48.592;8.850;2023-02-20T02:02:38;8.80;99.90
3942;DHT22;1985;48.592;8.850;2023-02-20T02:05:07;8.70;99.90
3942;DHT22;1985;48.592;8.850;2023-02-20T02:07:35;8.70;99.90
3942;DHT22;1985;48.592;8.850;2023-02-20T02:10:13;8.60;99.90
3942;DHT22;1985;48.592;8.850;2023-02-20T02:12:39;8.40;99.90
3942;DHT22;1985;48.592;8.850;2023-02-20T02:15:14;8.20;99.90
3942;DHT22;1985;48.592;8.850;2023-02-20T02:18:04;8.00;99.90
3942;DHT22;1985;48.592;8.850;2023-02-20T02:26:30;7.90;99.90
3942;DHT22;1985;48.592;8.850;2023-02-20T02:32:40;8.10;99.90
3942;DHT22;1985;48.592;8.850;2023-02-20T02:40:34;8.20;99.90
3942;DHT22;1985;48.592;8.850;2023-02-20T02:45:58;8.40;99.90
3942;DHT22;1985;48.592;8.850;2023-02-20T02:48:36;8.50;99.90
3942;DHT22;1985;48.592;8.850;2023-02-20T02:51:19;8.50;99.90
3942;DHT22;1985;48.592;8.850;2023-02-20T02:59:42;8.30;99.90
3942;DHT22;1985;48.592;8.850;2023-02-20T03:02:12;8.30;99.90
3942;DHT22;1985;48.592;8.850;2023-02-20T03:04:40;8.20;99.90
3942;DHT22;1985;48.592;8.850;2023-02-20T03:07:10;8.20;99.90
3942;DHT22;1985;48.592;8.850;2023-02-20T03:09:59;8.10;99.90
3942;DHT22;1985;48.592;8.850;2023-02-20T03:12:28;8.00;99.90
3942;DHT22;1985;48.592;8.850;2023-02-20T03:15:02;8.00;99.90
3942;DHT22;1985;48.592;8.850;2023-02-20T03:20:48;7.60;99.90
3942;DHT22;1985;48.592;8.850;2023-02-20T03:23:19;7.40;99.90
3942;DHT22;1985;48.592;8.850;2023-02-20T03:25:58;7.20;99.90
3942;DHT22;1985;48.592;8.850;2023-02-20T03:28:34;7.20;99.90
3942;DHT22;1985;48.592;8.850;2023-02-20T03:31:07;7.00;99.90
3942;DHT22;1985;48.592;8.850;2023-02-20T03:36:26;6.90;99.90
3942;DHT22;1985;48.592;8.850;2023-02-20T03:39:16;6.80;99.90
3942;DHT22;1985;48.592;8.850;2023-02-20T03:42:03;6.70;99.90
3942;DHT22;1985;48.592;8.850;2023-02-20T03:44:48;6.70;99.90
3942;DHT22;1985;48.592;8.850;2023-02-20T03:47:17;6.70;99.90
3942;DHT22;1985;48.592;8.850;2023-02-20T03:49:44;6.80;99.90
3942;DHT22;1985;48.592;8.850;2023-02-20T03:52:29;6.90;99.90
3942;DHT22;1985;48.592;8.850;2023-02-20T03:54:55;7.00;99.90
3942;DHT22;1985;48.592;8.850;2023-02-20T03:57:25;7.10;99.90
3942;DHT22;1985;48.592;8.850;2023-02-20T04:00:17;7.10;99.90
3942;DHT22;1985;48.592;8.850;2023-02-20T04:02:46;7.10;99.90
3942;DHT22;1985;48.592;8.850;2023-02-20T04:05:18;7.00;99.90
3942;DHT22;1985;48.592;8.850;2023-02-20T04:10:28;7.10;99.90
3942;DHT22;1985;48.592;8.850;2023-02-20T04:12:55;7.20;99.90
3942;DHT22;1985;48.592;8.850;2023-02-20T04:15:23;7.10;99.90
3942;DHT22;1985;48.592;8.850;2023-02-20T04:17:52;7.10;99.90
3942;DHT22;1985;48.592;8.850;2023-02-20T04:20:19;7.10;99.90
3942;DHT22;1985;48.592;8.850;2023-02-20T04:22:47;7.00;99.90
3942;DHT22;1985;48.592;8.850;2023-02-20T04:25:35;6.90;99.90
3942;DHT22;1985;48.592;8.850;2023-02-20T04:28:03;7.00;99.90
3942;DHT22;1985;48.592;8.850;2023-02-20T04:30:30;7.00;99.90
3942;DHT22;1985;48.592;8.850;2023-02-20T04:32:55;7.00;99.90
3942;DHT22;1985;48.592;8.850;2023-02-20T04:35:21;6.90;99.90
3942;DHT22;1985;48.592;8.850;2023-02-20T04:37:47;6.90;99.90
3942;DHT22;1985;48.592;8.850;2023-02-20T04:40:15;6.90;99.90
3942;DHT22;1985;48.592;8.850;2023-02-20T04:42:41;6.80;99.90
3942;DHT22;1985;48.592;8.850;2023-02-20T04:45:06;6.80;99.90
3942;DHT22;1985;48.592;8.850;2023-02-20T04:47:32;6.80;99.90
3942;DHT22;1985;48.592;8.850;2023-02-20T04:49:58;6.70;99.90
3942;DHT22;1985;48.592;8.850;2023-02-20T04:52:23;6.70;99.90
3942;DHT22;1985;48.592;8.850;2023-02-20T04:54:50;6.60;99.90
3942;DHT22;1985;48.592;8.850;2023-02-20T04:57:16;6.60;99.90
3942;DHT22;1985;48.592;8.850;2023-02-20T04:59:42;6.50;99.90
3942;DHT22;1985;48.592;8.850;2023-02-20T05:02:08;6.40;99.90
3942;DHT22;1985;48.592;8.850;2023-02-20T05:04:34;6.40;99.90
3942;DHT22;1985;48.592;8.850;2023-02-20T05:06:59;6.40;99.90
3942;DHT22;1985;48.592;8.850;2023-02-20T05:09:25;6.40;99.90
3942;DHT22;1985;48.592;8.850;2023-02-20T05:11:51;6.30;99.90
3942;DHT22;1985;48.592;8.850;2023-02-20T05:14:17;6.40;99.90
3942;DHT22;1985;48.592;8.850;2023-02-20T05:16:43;6.40;99.90
3942;DHT22;1985;48.592;8.850;2023-02-20T05:19:10;6.30;99.90
3942;DHT22;1985;48.592;8.850;2023-02-20T05:21:36;6.30;99.90
3942;DHT22;1985;48.592;8.850;2023-02-20T05:24:21;6.30;99.90
3942;DHT22;1985;48.592;8.850;2023-02-20T05:26:47;6.30;99.90
3942;DHT22;1985;48.592;8.850;2023-02-20T05:29:12;6.20;99.90
3942;DHT22;1985;48.592;8.850;2023-02-20T05:31:39;6.20;99.90
3942;DHT22;1985;48.592;8.850;2023-02-20T05:34:05;6.20;99.90
3942;DHT22;1985;48.592;8.850;2023-02-20T05:36:30;6.20;99.90
3942;DHT22;1985;48.592;8.850;2023-02-20T05:38:56;6.20;99.90
3942;DHT22;1985;48.592;8.850;2023-02-20T05:41:22;6.10;99.90
3942;DHT22;1985;48.592;8.850;2023-02-20T05:43:48;6.10;99.90
3942;DHT22;1985;48.592;8.850;2023-02-20T05:46:14;6.10;99.90
3942;DHT22;1985;48.592;8.850;2023-02-20T05:48:40;6.10;99.90
3942;DHT22;1985;48.592;8.850;2023-02-20T05:51:05;6.00;99.90
3942;DHT22;1985;48.592;8.850;2023-02-20T05:53:32;5.90;99.90
3942;DHT22;1985;48.592;8.850;2023-02-20T05:55:57;5.90;99.90
3942;DHT22;1985;48.592;8.850;2023-02-20T05:58:24;5.80;99.90
3942;DHT22;1985;48.592;8.850;2023-02-20T06:00:50;5.90;99.90
3942;DHT22;1985;48.592;8.850;2023-02-20T06:03:16;5.80;99.90
3942;DHT22;1985;48.592;8.850;2023-02-20T06:05:42;5.70;99.90
3942;DHT22;1985;48.592;8.850;2023-02-20T06:08:08;5.60;99.90
3942;DHT22;1985;48.592;8.850;2023-02-20T06:10:33;5.60;99.90
3942;DHT22;1985;48.592;8.850;2023-02-20T06:12:59;5.60;99.90
3942;DHT22;1985;48.592;8.850;2023-02-20T06:15:25;5.60;99.90
3942;DHT22;1985;48.592;8.850;2023-02-20T06:17:51;5.70;99.90
3942;DHT22;1985;48.592;8.850;2023-02-20T06:20:17;5.70;99.90
3942;DHT22;1985;48.592;8.850;2023-02-20T06:22:43;5.60;99.90
3942;DHT22;1985;48.592;8.850;2023-02-20T06:25:08;5.60;99.90
3942;DHT22;1985;48.592;8.850;2023-02-20T06:27:37;5.50;99.90
3942;DHT22;1985;48.592;8.850;2023-02-20T06:30:03;5.50;99.90
3942;DHT22;1985;48.592;8.850;2023-02-20T06:32:29;5.50;99.90
3942;DHT22;1985;48.592;8.850;2023-02-20T06:34:55;5.50;99.90
3942;DHT22;1985;48.592;8.850;2023-02-20T06:37:20;5.40;99.90
3942;DHT22;1985;48.592;8.850;2023-02-20T06:39:46;5.40;99.90
3942;DHT22;1985;48.592;8.850;2023-02-20T06:42:14;5.30;99.90
3942;DHT22;1985;48.592;8.850;2023-02-20T06:44:39;5.40;99.90
3942;DHT22;1985;48.592;8.850;2023-02-20T06:47:05;5.40;99.90
3942;DHT22;1985;48.592;8.850;2023-02-20T06:49:34;5.50;99.90
3942;DHT22;1985;48.592;8.850;2023-02-20T06:52:00;5.50;99.90
3942;DHT22;1985;48.592;8.850;2023-02-20T06:54:26;5.50;99.90
3942;DHT22;1985;48.592;8.850;2023-02-20T06:56:52;5.60;99.90
3942;DHT22;1985;48.592;8.850;2023-02-20T06:59:18;5.60;99.90
3942;DHT22;1985;48.592;8.850;2023-02-20T07:01:43;5.60;99.90
3942;DHT22;1985;48.592;8.850;2023-02-20T07:04:18;5.60;99.90
3942;DHT22;1985;48.592;8.850;2023-02-20T07:06:44;5.50;99.90
3942;DHT22;1985;48.592;8.850;2023-02-20T07:09:09;5.60;99.90
3942;DHT22;1985;48.592;8.850;2023-02-20T07:11:35;5.50;99.90
3942;DHT22;1985;48.592;8.850;2023-02-20T07:14:01;5.60;99.90
3942;DHT22;1985;48.592;8.850;2023-02-20T07:16:26;5.70;99.90
3942;DHT22;1985;48.592;8.850;2023-02-20T07:18:52;5.70;99.90
3942;DHT22;1985;48.592;8.850;2023-02-20T07:21:18;5.70;99.90
3942;DHT22;1985;48.592;8.850;2023-02-20T07:23:44;5.70;99.90
3942;DHT22;1985;48.592;8.850;2023-02-20T07:26:20;5.80;99.90
3942;DHT22;1985;48.592;8.850;2023-02-20T07:28:46;5.90;99.90
3942;DHT22;1985;48.592;8.850;2023-02-20T07:31:12;5.90;99.90
3942;DHT22;1985;48.592;8.850;2023-02-20T07:33:38;5.90;99.90
3942;DHT22;1985;48.592;8.850;2023-02-20T07:36:04;5.90;99.90
3942;DHT22;1985;48.592;8.850;2023-02-20T07:38:29;5.90;99.90
3942;DHT22;1985;48.592;8.850;2023-02-20T07:40:55;6.10;99.90
3942;DHT22;1985;48.592;8.850;2023-02-20T07:43:21;6.10;99.90
3942;DHT22;1985;48.592;8.850;2023-02-20T07:45:46;6.10;99.90
3942;DHT22;1985;48.592;8.850;2023-02-20T07:48:12;6.20;99.90
3942;DHT22;1985;48.592;8.850;2023-02-20T07:50:38;6.20;99.90
3942;DHT22;1985;48.592;8.850;2023-02-20T07:53:03;6.30;99.90
3942;DHT22;1985;48.592;8.850;2023-02-20T07:55:29;6.50;99.90
3942;DHT22;1985;48.592;8.850;2023-02-20T07:57:54;6.70;99.90
3942;DHT22;1985;48.592;8.850;2023-02-20T08:00:24;6.90;99.90
3942;DHT22;1985;48.592;8.850;2023-02-20T08:02:49;7.10;99.90
3942;DHT22;1985;48.592;8.850;2023-02-20T08:05:15;7.20;99.90
3942;DHT22;1985;48.592;8.850;2023-02-20T08:07:48;7.20;99.90
3942;DHT22;1985;48.592;8.850;2023-02-20T08:10:15;7.20;99.90
3942;DHT22;1985;48.592;8.850;2023-02-20T08:12:42;7.20;99.90
3942;DHT22;1985;48.592;8.850;2023-02-20T08:15:08;7.10;99.90
3942;DHT22;1985;48.592;8.850;2023-02-20T08:17:37;7.40;99.90
3942;DHT22;1985;48.592;8.850;2023-02-20T08:20:04;7.60;99.90
3942;DHT22;1985;48.592;8.850;2023-02-20T08:22:29;7.70;99.90
3942;DHT22;1985;48.592;8.850;2023-02-20T08:24:55;7.80;99.90
3942;DHT22;1985;48.592;8.850;2023-02-20T08:27:21;7.90;99.90
3942;DHT22;1985;48.592;8.850;2023-02-20T08:29:46;8.10;99.90
3942;DHT22;1985;48.592;8.850;2023-02-20T08:32:12;8.10;99.90
3942;DHT22;1985;48.592;8.850;2023-02-20T08:34:37;8.20;99.90
3942;DHT22;1985;48.592;8.850;2023-02-20T08:37:03;8.30;99.90
3942;DHT22;1985;48.592;8.850;2023-02-20T08:39:29;8.50;99.90
3942;DHT22;1985;48.592;8.850;2023-02-20T08:41:54;8.60;99.90
3942;DHT22;1985;48.592;8.850;2023-02-20T08:44:20;8.80;99.90
3942;DHT22;1985;48.592;8.850;2023-02-20T08:46:50;9.10;99.90
3942;DHT22;1985;48.592;8.850;2023-02-20T08:49:16;9.30;99.90
3942;DHT22;1985;48.592;8.850;2023-02-20T08:51:46;9.60;99.90
3942;DHT22;1985;48.592;8.850;2023-02-20T08:54:14;9.60;99.90
3942;DHT22;1985;48.592;8.850;2023-02-20T08:56:41;9.50;99.90
3942;DHT22;1985;48.592;8.850;2023-02-20T08:59:07;9.60;99.90
3942;DHT22;1985;48.592;8.850;2023-02-20T09:01:33;9.90;99.90
3942;DHT22;1985;48.592;8.850;2023-02-20T09:03:59;10.10;99.90
3942;DHT22;1985;48.592;8.850;2023-02-20T09:06:25;10.20;99.90
3942;DHT22;1985;48.592;8.850;2023-02-20T09:08:52;10.40;99.90
3942;DHT22;1985;48.592;8.850;2023-02-20T09:11:18;10.40;99.90
3942;DHT22;1985;48.592;8.850;2023-02-20T09:13:46;10.50;99.90
3942;DHT22;1985;48.592;8.850;2023-02-20T09:16:13;10.60;99.90
3942;DHT22;1985;48.592;8.850;2023-02-20T09:18:39;10.80;99.90
3942;DHT22;1985;48.592;8.850;2023-02-20T09:21:09;11.10;99.90
3942;DHT22;1985;48.592;8.850;2023-02-20T09:23:35;11.40;99.90
3942;DHT22;1985;48.592;8.850;2023-02-20T09:26:01;11.60;99.90
3942;DHT22;1985;48.592;8.850;2023-02-20T09:28:27;11.90;99.90
3942;DHT22;1985;48.592;8.850;2023-02-20T09:30:52;12.10;99.90
3942;DHT22;1985;48.592;8.850;2023-02-20T09:33:20;11.70;99.90
3942;DHT22;1985;48.592;8.850;2023-02-20T09:35:46;11.70;99.90
3942;DHT22;1985;48.592;8.850;2023-02-20T09:38:14;11.90;99.90
3942;DHT22;1985;48.592;8.850;2023-02-20T09:40:41;11.90;99.90
3942;DHT22;1985;48.592;8.850;2023-02-20T09:43:32;11.70;99.90
3942;DHT22;1985;48.592;8.850;2023-02-20T09:46:19;11.50;99.90
3942;DHT22;1985;48.592;8.850;2023-02-20T09:51:20;11.70;99.70
3942;DHT22;1985;48.592;8.850;2023-02-20T09:56:21;11.70;98.60
3942;DHT22;1985;48.592;8.850;2023-02-20T10:01:21;12.20;98.10
3942;DHT22;1985;48.592;8.850;2023-02-20T10:03:54;12.10;97.00
3942;DHT22;1985;48.592;8.850;2023-02-20T10:06:23;12.30;97.40
3942;DHT22;1985;48.592;8.850;2023-02-20T10:08:50;12.20;96.60
3942;DHT22;1985;48.592;8.850;2023-02-20T10:14:24;12.00;96.80
3942;DHT22;1985;48.592;8.850;2023-02-20T10:19:49;12.50;95.90
3942;DHT22;1985;48.592;8.850;2023-02-20T10:25:30;12.90;94.70
3942;DHT22;1985;48.592;8.850;2023-02-20T10:30:38;13.30;93.30
3942;DHT22;1985;48.592;8.850;2023-02-20T10:35:44;14.90;92.40
3942;DHT22;1985;48.592;8.850;2023-02-20T10:38:16;17.40;83.00
3942;DHT22;1985;48.592;8.850;2023-02-20T10:43:17;20.70;63.90
3942;DHT22;1985;48.592;8.850;2023-02-20T10:46:00;22.20;60.10
3942;DHT22;1985;48.592;8.850;2023-02-20T10:48:31;22.80;53.00
3942;DHT22;1985;48.592;8.850;2023-02-20T10:51:05;21.40;52.90
3942;DHT22;1985;48.592;8.850;2023-02-20T10:56:32;21.50;51.10
3942;DHT22;1985;48.592;8.850;2023-02-20T10:59:20;21.10;51.20
3942;DHT22;1985;48.592;8.850;2023-02-20T11:01:53;21.80;51.90
3942;DHT22;1985;48.592;8.850;2023-02-20T11:04:22;22.30;49.30
3942;DHT22;1985;48.592;8.850;2023-02-20T11:07:03;22.20;49.10
3942;DHT22;1985;48.592;8.850;2023-02-20T11:09:31;21.80;49.50
3942;DHT22;1985;48.592;8.850;2023-02-20T11:11:57;22.90;48.90
3942;DHT22;1985;48.592;8.850;2023-02-20T11:14:41;22.70;48.00
3942;DHT22;1985;48.592;8.850;2023-02-20T11:17:18;22.90;47.70
3942;DHT22;1985;48.592;8.850;2023-02-20T11:19:46;23.20;45.50
3942;DHT22;1985;48.592;8.850;2023-02-20T11:22:13;22.60;46.70
3942;DHT22;1985;48.592;8.850;2023-02-20T11:24:42;21.90;46.40
3942;DHT22;1985;48.592;8.850;2023-02-20T11:27:13;21.70;46.50
3942;DHT22;1985;48.592;8.850;2023-02-20T11:29:53;22.60;47.30
3942;DHT22;1985;48.592;8.850;2023-02-20T11:32:35;21.70;46.80
3942;DHT22;1985;48.592;8.850;2023-02-20T11:35:23;21.90;46.90
3942;DHT22;1985;48.592;8.850;2023-02-20T11:40:42;22.40;46.70
3942;DHT22;1985;48.592;8.850;2023-02-20T11:43:20;23.70;44.90
3942;DHT22;1985;48.592;8.850;2023-02-20T11:45:46;24.80;44.90
3942;DHT22;1985;48.592;8.850;2023-02-20T11:48:16;25.90;42.10
3942;DHT22;1985;48.592;8.850;2023-02-20T11:53:30;25.30;40.90
3942;DHT22;1985;48.592;8.850;2023-02-20T11:56:16;23.40;41.40
3942;DHT22;1985;48.592;8.850;2023-02-20T11:58:45;22.90;42.80
3942;DHT22;1985;48.592;8.850;2023-02-20T12:01:30;24.70;42.80
3942;DHT22;1985;48.592;8.850;2023-02-20T12:03:57;25.10;40.40
3942;DHT22;1985;48.592;8.850;2023-02-20T12:08:59;25.30;40.50
3942;DHT22;1985;48.592;8.850;2023-02-20T12:11:27;25.90;38.80
3942;DHT22;1985;48.592;8.850;2023-02-20T12:13:56;24.30;40.30
3942;DHT22;1985;48.592;8.850;2023-02-20T12:19:32;23.80;40.70
3942;DHT22;1985;48.592;8.850;2023-02-20T12:22:21;24.70;40.70
3942;DHT22;1985;48.592;8.850;2023-02-20T12:25:03;23.50;39.30
3942;DHT22;1985;48.592;8.850;2023-02-20T12:30:54;23.90;39.70
3942;DHT22;1985;48.592;8.850;2023-02-20T12:35:54;23.20;41.00
3942;DHT22;1985;48.592;8.850;2023-02-20T12:44:28;22.60;40.30
3942;DHT22;1985;48.592;8.850;2023-02-20T12:50:25;22.40;39.80
3942;DHT22;1985;48.592;8.850;2023-02-20T12:58:58;24.30;41.70
3942;DHT22;1985;48.592;8.850;2023-02-20T13:01:25;27.20;39.10
3942;DHT22;1985;48.592;8.850;2023-02-20T13:03:59;29.10;35.00
3942;DHT22;1985;48.592;8.850;2023-02-20T13:06:45;29.60;32.90
3942;DHT22;1985;48.592;8.850;2023-02-20T13:09:30;29.80;33.30
3942;DHT22;1985;48.592;8.850;2023-02-20T13:12:02;31.00;33.10
3942;DHT22;1985;48.592;8.850;2023-02-20T13:17:29;29.80;29.60
3942;DHT22;1985;48.592;8.850;2023-02-20T13:20:13;27.40;32.50
3942;DHT22;1985;48.592;8.850;2023-02-20T13:22:41;25.70;34.70
3942;DHT22;1985;48.592;8.850;2023-02-20T13:25:30;24.70;35.50
3942;DHT22;1985;48.592;8.850;2023-02-20T13:28:22;24.50;33.80
3942;DHT22;1985;48.592;8.850;2023-02-20T13:31:20;25.60;34.80
3942;DHT22;1985;48.592;8.850;2023-02-20T13:33:50;24.50;32.90
3942;DHT22;1985;48.592;8.850;2023-02-20T13:36:36;23.60;33.50
3942;DHT22;1985;48.592;8.850;2023-02-20T13:44:42;19.50;36.40
3942;DHT22;1985;48.592;8.850;2023-02-20T14:00:50;18.80;38.50
3942;DHT22;1985;48.592;8.850;2023-02-20T14:03:26;20.20;37.80
3942;DHT22;1985;48.592;8.850;2023-02-20T14:06:12;20.50;35.60
3942;DHT22;1985;48.592;8.850;2023-02-20T14:08:40;20.00;36.00
3942;DHT22;1985;48.592;8.850;2023-02-20T14:11:26;19.40;38.20
3942;DHT22;1985;48.592;8.850;2023-02-20T14:13:53;18.50;37.40
3942;DHT22;1985;48.592;8.850;2023-02-20T14:16:30;18.20;38.30
3942;DHT22;1985;48.592;8.850;2023-02-20T14:18:58;17.80;38.70
3942;DHT22;1985;48.592;8.850;2023-02-20T14:21:25;17.70;40.00
3942;DHT22;1985;48.592;8.850;2023-02-20T14:23:52;17.80;38.80
3942;DHT22;1985;48.592;8.850;2023-02-20T14:26:25;17.70;39.60
3942;DHT22;1985;48.592;8.850;2023-02-20T14:28:55;17.80;39.50
3942;DHT22;1985;48.592;8.850;2023-02-20T14:31:33;17.80;39.20
3942;DHT22;1985;48.592;8.850;2023-02-20T14:34:01;17.90;39.30
3942;DHT22;1985;48.592;8.850;2023-02-20T14:39:39;17.70;39.60
3942;DHT22;1985;48.592;8.850;2023-02-20T14:42:14;17.80;39.80
3942;DHT22;1985;48.592;8.850;2023-02-20T14:44:40;17.80;39.80
3942;DHT22;1985;48.592;8.850;2023-02-20T14:47:11;17.40;37.20
3942;DHT22;1985;48.592;8.850;2023-02-20T14:49:37;17.50;38.10
3942;DHT22;1985;48.592;8.850;2023-02-20T14:54:39;17.40;38.10
3942;DHT22;1985;48.592;8.850;2023-02-20T14:57:06;17.40;39.10
3942;DHT22;1985;48.592;8.850;2023-02-20T14:59:34;17.40;40.60
3942;DHT22;1985;48.592;8.850;2023-02-20T15:04:53;17.00;40.60
3942;DHT22;1985;48.592;8.850;2023-02-20T15:07:22;16.90;40.70
3942;DHT22;1985;48.592;8.850;2023-02-20T15:09:51;16.80;41.60
3942;DHT22;1985;48.592;8.850;2023-02-20T15:12:38;16.60;42.60
3942;DHT22;1985;48.592;8.850;2023-02-20T15:15:07;16.50;43.20
3942;DHT22;1985;48.592;8.850;2023-02-20T15:17:36;16.40;43.50
3942;DHT22;1985;48.592;8.850;2023-02-20T15:20:34;16.30;43.20
3942;DHT22;1985;48.592;8.850;2023-02-20T15:23:16;16.10;42.20
3942;DHT22;1985;48.592;8.850;2023-02-20T15:25:44;15.90;43.80
3942;DHT22;1985;48.592;8.850;2023-02-20T15:28:11;15.70;43.20
3942;DHT22;1985;48.592;8.850;2023-02-20T15:31:14;15.50;44.00
3942;DHT22;1985;48.592;8.850;2023-02-20T15:33:52;15.40;43.80
3942;DHT22;1985;48.592;8.850;2023-02-20T15:36:22;15.50;43.60
3942;DHT22;1985;48.592;8.850;2023-02-20T15:38:52;15.20;43.90
3942;DHT22;1985;48.592;8.850;2023-02-20T15:41:18;15.10;44.40
3942;DHT22;1985;48.592;8.850;2023-02-20T15:43:46;15.00;44.50
3942;DHT22;1985;48.592;8.850;2023-02-20T15:46:12;15.00;44.80
3942;DHT22;1985;48.592;8.850;2023-02-20T15:48:39;14.80;45.00
3942;DHT22;1985;48.592;8.850;2023-02-20T15:51:04;14.70;44.60
3942;DHT22;1985;48.592;8.850;2023-02-20T15:53:31;14.50;44.80
3942;DHT22;1985;48.592;8.850;2023-02-20T15:55:58;14.50;45.60
3942;DHT22;1985;48.592;8.850;2023-02-20T15:58:38;14.40;45.30
3942;DHT22;1985;48.592;8.850;2023-02-20T16:01:06;14.30;45.60
3942;DHT22;1985;48.592;8.850;2023-02-20T16:03:32;14.10;45.70
3942;DHT22;1985;48.592;8.850;2023-02-20T16:05:59;14.10;45.30
3942;DHT22;1985;48.592;8.850;2023-02-20T16:08:26;14.10;45.50
3942;DHT22;1985;48.592;8.850;2023-02-20T16:10:52;14.00;45.90
3942;DHT22;1985;48.592;8.850;2023-02-20T16:13:30;13.90;45.90
3942;DHT22;1985;48.592;8.850;2023-02-20T16:15:56;13.80;46.40
3942;DHT22;1985;48.592;8.850;2023-02-20T16:18:22;13.70;46.10
3942;DHT22;1985;48.592;8.850;2023-02-20T16:20:49;13.60;46.90
3942;DHT22;1985;48.592;8.850;2023-02-20T16:23:16;13.50;46.80
3942;DHT22;1985;48.592;8.850;2023-02-20T16:25:42;13.40;47.30
3942;DHT22;1985;48.592;8.850;2023-02-20T16:28:10;13.30;47.00
3942;DHT22;1985;48.592;8.850;2023-02-20T16:30:41;13.20;47.30
3942;DHT22;1985;48.592;8.850;2023-02-20T16:33:15;13.10;47.60
3942;DHT22;1985;48.592;8.850;2023-02-20T16:35:42;13.00;48.10
3942;DHT22;1985;48.592;8.850;2023-02-20T16:38:08;12.90;47.70
3942;DHT22;1985;48.592;8.850;2023-02-20T16:40:34;12.90;48.10
3942;DHT22;1985;48.592;8.850;2023-02-20T16:43:00;12.70;48.60
3942;DHT22;1985;48.592;8.850;2023-02-20T16:45:25;12.50;48.90
3942;DHT22;1985;48.592;8.850;2023-02-20T16:47:53;12.40;49.50
3942;DHT22;1985;48.592;8.850;2023-02-20T16:50:22;12.20;49.80
3942;DHT22;1985;48.592;8.850;2023-02-20T16:52:50;12.20;49.40
3942;DHT22;1985;48.592;8.850;2023-02-20T16:55:20;12.10;49.10
3942;DHT22;1985;48.592;8.850;2023-02-20T16:57:46;12.10;49.30
3942;DHT22;1985;48.592;8.850;2023-02-20T17:00:14;12.00;49.30
3942;DHT22;1985;48.592;8.850;2023-02-20T17:02:41;11.90;49.80
3942;DHT22;1985;48.592;8.850;2023-02-20T17:05:07;11.90;50.20
3942;DHT22;1985;48.592;8.850;2023-02-20T17:07:32;11.80;50.70
3942;DHT22;1985;48.592;8.850;2023-02-20T17:09:59;11.70;52.10
3942;DHT22;1985;48.592;8.850;2023-02-20T17:12:25;11.50;52.70
3942;DHT22;1985;48.592;8.850;2023-02-20T17:14:51;11.30;53.20
3942;DHT22;1985;48.592;8.850;2023-02-20T17:17:18;11.20;53.00
3942;DHT22;1985;48.592;8.850;2023-02-20T17:19:44;11.10;53.60
3942;DHT22;1985;48.592;8.850;2023-02-20T17:22:11;11.10;53.50
3942;DHT22;1985;48.592;8.850;2023-02-20T17:24:41;11.10;53.50
3942;DHT22;1985;48.592;8.850;2023-02-20T17:27:08;11.20;53.80
3942;DHT22;1985;48.592;8.850;2023-02-20T17:29:34;11.20;53.90
3942;DHT22;1985;48.592;8.850;2023-02-20T17:32:00;11.20;53.80
3942;DHT22;1985;48.592;8.850;2023-02-20T17:34:26;11.30;54.00
3942;DHT22;1985;48.592;8.850;2023-02-20T17:36:51;11.30;54.40
3942;DHT22;1985;48.592;8.850;2023-02-20T17:39:19;11.40;55.60
3942;DHT22;1985;48.592;8.850;2023-02-20T17:41:47;11.50;56.80
3942;DHT22;1985;48.592;8.850;2023-02-20T17:44:16;11.50;55.60
3942;DHT22;1985;48.592;8.850;2023-02-20T17:46:42;11.60;55.50
3942;DHT22;1985;48.592;8.850;2023-02-20T17:49:08;11.50;55.20
3942;DHT22;1985;48.592;8.850;2023-02-20T17:51:33;11.50;55.30
3942;DHT22;1985;48.592;8.850;2023-02-20T17:53:59;11.40;55.40
3942;DHT22;1985;48.592;8.850;2023-02-20T17:56:25;11.40;56.30
3942;DHT22;1985;48.592;8.850;2023-02-20T17:58:51;11.30;57.30
3942;DHT22;1985;48.592;8.850;2023-02-20T18:01:16;11.30;55.90
3942;DHT22;1985;48.592;8.850;2023-02-20T18:03:42;11.30;55.80
3942;DHT22;1985;48.592;8.850;2023-02-20T18:06:08;11.20;56.70
3942;DHT22;1985;48.592;8.850;2023-02-20T18:08:34;11.20;57.20
3942;DHT22;1985;48.592;8.850;2023-02-20T18:11:00;11.20;56.80
3942;DHT22;1985;48.592;8.850;2023-02-20T18:13:25;11.20;56.00
3942;DHT22;1985;48.592;8.850;2023-02-20T18:15:51;11.00;56.30
3942;DHT22;1985;48.592;8.850;2023-02-20T18:18:17;11.00;56.70
3942;DHT22;1985;48.592;8.850;2023-02-20T18:20:43;10.90;57.00
3942;DHT22;1985;48.592;8.850;2023-02-20T18:23:10;10.90;56.90
3942;DHT22;1985;48.592;8.850;2023-02-20T18:25:35;10.90;57.00